PDT,Max TemperatureF,Mean TemperatureF,Min TemperatureF,Max Dew PointF,MeanDew PointF,Min DewpointF,Max Humidity, Mean Humidity, Min Humidity, Max Sea Level PressureIn, Mean Sea Level PressureIn, Min Sea Level PressureIn, Max VisibilityMiles, Mean VisibilityMiles, Min VisibilityMiles, Max Wind SpeedMPH, Mean Wind SpeedMPH, Max Gust SpeedMPH,PrecipitationIn, CloudCover, Events, WindDirDegrees
2013-5-1,61,47,33,41,34,30,100,67,34,30.61,30.56,30.47,10,10,10,7,1,,0.00,0,,102
2013-5-2,60,47,35,42,37,31,86,64,46,30.58,30.49,30.42,10,10,10,8,2,,0.00,0,,352
2013-5-3,66,56,45,47,44,39,83,67,45,30.43,30.37,30.27,10,10,10,12,4,20,0.00,0,,356
2013-5-4,73,60,46,47,44,40,86,58,34,30.28,30.19,30.03,10,10,10,17,6,24,0.00,0,,351
2013-5-5,80,64,48,49,45,42,80,56,30,30.03,29.92,29.80,10,10,10,12,3,16,0.00,0,,357
2013-5-6,75,62,48,52,48,44,93,68,42,29.88,29.84,29.78,10,10,10,8,1,,0.00,0,,150
2013-5-7,62,53,46,52,48,45,100,88,69,29.99,29.94,29.85,10,8,0,12,4,18,0.00,4,Fog,136
2013-5-8,60,53,45,50,47,43,93,83,69,30.16,30.11,30.01,10,10,7,13,8,20,0.00,4,,191
2013-5-9,63,52,43,51,46,42,97,86,64,30.24,30.20,30.14,10,7,0,8,2,,0.00,2,Fog,120
2013-5-10,63,53,46,51,47,44,100,89,72,30.23,30.19,30.14,10,6,0,5,3,,0.00,3,Fog,94
2013-5-11,68,56,46,52,48,46,97,79,54,30.18,30.11,30.01,10,10,7,6,2,,0.00,3,Rain,127
2013-5-12,62,56,50,58,54,49,100,94,82,30.08,30.05,30.01,10,6,1,5,1,,0.11,8,Rain,153
2013-5-13,60,52,46,55,50,42,100,90,71,30.19,30.02,29.92,10,10,5,14,3,23,0.01,6,Rain,177
2013-5-14,62,53,45,47,44,38,93,75,44,30.24,30.20,30.14,10,10,8,9,3,,0.01,4,Rain,161
2013-5-15,62,54,45,48,46,44,97,81,57,30.14,30.07,30.03,10,10,8,6,1,,0.00,6,Rain,120
2013-5-16,64,54,46,54,50,45,97,84,60,30.03,29.98,29.91,10,9,3,9,3,,0.00,5,Rain,19
2013-5-17,57,52,46,52,49,45,100,93,78,30.06,29.99,29.94,10,10,5,7,2,,0.00,7,Rain,146
2013-5-18,57,52,48,50,49,47,100,96,77,30.28,30.13,30.06,10,7,1,7,1,,0.02,8,Rain,166
2013-5-19,62,54,45,49,47,43,100,80,56,30.42,30.38,30.30,10,10,10,10,2,,0.00,4,,214
2013-5-20,62,50,39,50,46,40,100,84,64,30.36,30.15,29.94,10,9,4,8,2,,0.00,2,Rain,120
2013-5-21,54,49,44,47,45,41,100,90,69,29.91,29.84,29.81,10,8,3,7,2,,0.07,7,Rain,135
2013-5-22,60,50,43,47,45,42,100,83,62,29.97,29.89,29.86,10,9,4,10,2,16,0.16,6,Rain,163
2013-5-23,63,53,46,48,45,41,93,82,57,30.00,29.98,29.94,10,10,10,14,2,20,0.00,5,,104
2013-5-24,63,52,41,47,45,39,93,74,53,30.04,30.02,29.99,10,10,10,12,4,,0.00,2,,167
2013-5-25,63,56,48,49,47,45,93,79,54,30.05,30.03,30.01,10,10,10,7,3,,0.00,6,Rain,133
2013-5-26,60,54,48,52,50,48,97,89,77,30.01,29.99,29.95,10,8,4,4,1,,0.08,8,Rain,107
2013-5-27,57,52,48,52,49,47,100,88,80,29.94,29.79,29.70,10,9,1,12,5,20,0.01,7,Rain,107
2013-5-28,63,56,50,53,50,48,96,88,69,29.87,29.82,29.76,10,9,2,7,2,,0.02,8,Rain,111
2013-5-29,57,52,48,52,49,44,100,90,69,29.96,29.79,29.70,10,10,4,7,2,,0.00,7,Rain,169
2013-5-30,63,55,48,49,47,41,93,78,60,30.25,30.11,29.98,10,10,10,9,4,,0.00,6,Rain,142
2013-5-31,64,54,44,50,47,42,97,80,54,30.37,30.32,30.26,10,10,10,9,3,,0.00,4,Rain,177